createdAt,value
2019-03-18T00:02:18.857Z,1.00
2019-03-18T00:04:45.780Z,1.00
2019-03-18T00:07:12.723Z,2.60
2019-03-18T00:09:39.657Z,0.80
2019-03-18T00:12:06.597Z,2.23
2019-03-18T00:14:33.536Z,1.13
2019-03-18T00:17:00.465Z,2.10
2019-03-18T00:19:27.403Z,0.87
2019-03-18T00:21:54.353Z,0.80
2019-03-18T00:24:21.287Z,2.57
2019-03-18T00:26:48.233Z,2.03
2019-03-18T00:29:15.179Z,1.63
2019-03-18T00:31:42.112Z,3.07
2019-03-18T00:34:09.033Z,1.20
2019-03-18T00:36:35.984Z,0.93
2019-03-18T00:39:04.888Z,0.63
2019-03-18T00:41:31.831Z,1.60
2019-03-18T00:43:58.785Z,2.50
2019-03-18T00:46:25.713Z,2.47
2019-03-18T00:48:52.736Z,1.57
2019-03-18T00:51:19.704Z,1.67
2019-03-18T00:53:46.661Z,1.33
2019-03-18T00:56:13.588Z,2.10
2019-03-18T00:58:40.556Z,1.43
2019-03-18T01:01:07.481Z,0.80
2019-03-18T01:03:34.419Z,1.13
2019-03-18T01:06:01.381Z,1.47
2019-03-18T01:08:28.297Z,1.23
2019-03-18T01:10:55.220Z,1.57
2019-03-18T01:13:22.175Z,2.03
2019-03-18T01:15:49.261Z,2.17
2019-03-18T01:18:16.208Z,1.37
2019-03-18T01:20:43.156Z,0.97
2019-03-18T01:23:10.094Z,1.80
2019-03-18T01:25:37.020Z,1.57
2019-03-18T01:28:03.964Z,1.97
2019-03-18T01:30:30.904Z,1.70
2019-03-18T01:32:57.838Z,3.43
2019-03-18T01:35:24.798Z,2.03
2019-03-18T01:37:51.737Z,1.00
2019-03-18T01:40:18.642Z,1.33
2019-03-18T01:42:45.623Z,1.63
2019-03-18T01:45:12.553Z,1.27
2019-03-18T01:47:39.502Z,1.30
2019-03-18T01:50:07.812Z,2.57
2019-03-18T01:52:34.784Z,1.87
2019-03-18T01:55:01.801Z,2.57
2019-03-18T01:57:28.760Z,2.87
2019-03-18T01:59:55.723Z,0.93
2019-03-18T02:02:22.789Z,1.27
2019-03-18T02:04:49.974Z,0.83
2019-03-18T02:07:17.013Z,1.70
2019-03-18T02:09:43.950Z,1.43
2019-03-18T02:12:10.886Z,1.00
2019-03-18T02:14:37.871Z,0.70
2019-03-18T02:17:04.791Z,2.00
2019-03-18T02:19:31.738Z,0.90
2019-03-18T02:21:58.677Z,1.47
2019-03-18T02:24:25.625Z,1.00
2019-03-18T02:26:52.570Z,1.87
2019-03-18T02:29:19.508Z,1.27
2019-03-18T02:31:46.469Z,1.63
2019-03-18T02:34:13.482Z,0.77
2019-03-18T02:36:40.456Z,3.03
2019-03-18T02:39:07.388Z,1.23
2019-03-18T02:41:34.330Z,0.97
2019-03-18T02:44:01.289Z,1.13
2019-03-18T02:46:28.221Z,1.33
2019-03-18T02:48:55.172Z,1.53
2019-03-18T02:51:23.295Z,0.93
2019-03-18T02:53:50.232Z,0.93
2019-03-18T02:56:17.217Z,1.87
2019-03-18T02:58:44.153Z,1.13
2019-03-18T03:01:11.077Z,1.13
2019-03-18T03:03:38.026Z,1.10
2019-03-18T03:06:04.973Z,0.90
2019-03-18T03:08:31.922Z,3.47
2019-03-18T03:10:58.888Z,1.40
2019-03-18T03:13:25.827Z,1.53
2019-03-18T03:15:52.740Z,1.57
2019-03-18T03:18:19.733Z,1.40
2019-03-18T03:20:46.678Z,0.93
2019-03-18T03:23:13.604Z,0.90
2019-03-18T03:25:40.553Z,1.13
2019-03-18T03:28:07.531Z,1.00
2019-03-18T03:30:34.517Z,1.30
2019-03-18T03:33:01.429Z,1.37
2019-03-18T03:35:28.388Z,1.63
2019-03-18T03:37:55.357Z,1.37
2019-03-18T03:40:22.272Z,2.20
2019-03-18T03:42:49.203Z,1.40
2019-03-18T03:45:16.157Z,1.20
2019-03-18T03:47:43.101Z,1.73
2019-03-18T03:50:10.087Z,2.30
2019-03-18T03:52:37.131Z,1.60
2019-03-18T03:55:04.272Z,1.40
2019-03-18T03:57:31.208Z,2.40
2019-03-18T03:59:58.164Z,1.30
2019-03-18T04:02:25.116Z,1.17
2019-03-18T04:04:52.056Z,1.43
2019-03-18T04:07:19.014Z,2.27
2019-03-18T04:09:45.964Z,1.00
2019-03-18T04:12:12.888Z,2.37
2019-03-18T04:14:39.816Z,1.40
2019-03-18T04:17:06.762Z,2.43
2019-03-18T04:19:33.683Z,1.97
2019-03-18T04:22:00.616Z,2.03
2019-03-18T04:24:27.720Z,1.37
2019-03-18T04:26:54.664Z,1.97
2019-03-18T04:29:22.661Z,4.20
2019-03-18T04:31:49.625Z,1.30
2019-03-18T04:34:16.559Z,2.93
2019-03-18T04:36:43.497Z,1.50
2019-03-18T04:39:10.453Z,3.03
2019-03-18T04:41:39.875Z,1.97
2019-03-18T04:44:06.802Z,2.23
2019-03-18T04:46:33.756Z,3.90
2019-03-18T04:49:00.692Z,1.73
2019-03-18T04:51:27.629Z,2.10
2019-03-18T04:53:54.779Z,3.80
2019-03-18T04:56:21.716Z,1.53
2019-03-18T04:58:48.646Z,1.57
2019-03-18T05:01:15.590Z,1.43
2019-03-18T05:03:42.524Z,4.40
2019-03-18T05:06:09.452Z,1.93
2019-03-18T05:08:36.400Z,2.07
2019-03-18T05:11:03.342Z,1.17
2019-03-18T05:13:30.291Z,2.73
2019-03-18T05:15:57.290Z,4.03
2019-03-18T05:18:24.237Z,2.93
2019-03-18T05:20:51.156Z,1.63
2019-03-18T05:23:18.204Z,4.17
2019-03-18T05:25:45.178Z,3.47
2019-03-18T05:28:12.120Z,2.50
2019-03-18T05:30:39.060Z,4.30
2019-03-18T05:33:06.000Z,1.77
2019-03-18T05:35:32.940Z,1.20
2019-03-18T05:37:59.913Z,1.30
2019-03-18T05:40:26.839Z,1.03
2019-03-18T05:42:53.760Z,1.37
2019-03-18T05:45:20.696Z,2.53
2019-03-18T05:47:47.777Z,1.60
2019-03-18T05:50:14.705Z,1.50
2019-03-18T05:52:41.664Z,1.57
2019-03-18T05:55:10.097Z,2.10
2019-03-18T05:57:37.061Z,1.83
2019-03-18T06:00:04.565Z,1.40
2019-03-18T06:02:31.479Z,3.77
2019-03-18T06:04:58.644Z,1.93
2019-03-18T06:07:25.590Z,1.77
2019-03-18T06:09:52.538Z,4.97
2019-03-18T06:12:19.492Z,5.77
2019-03-18T06:14:46.461Z,2.53
2019-03-18T06:17:13.401Z,1.77
2019-03-18T06:19:40.320Z,1.40
2019-03-18T06:22:07.312Z,1.53
2019-03-18T06:24:34.261Z,4.07
2019-03-18T06:27:01.203Z,4.23
2019-03-18T06:29:28.170Z,3.40
2019-03-18T06:31:55.104Z,1.97
2019-03-18T06:34:22.068Z,4.77
2019-03-18T06:36:49.049Z,3.57
2019-03-18T06:39:16.005Z,2.50
2019-03-18T06:41:42.952Z,1.67
2019-03-18T06:44:09.909Z,1.97
2019-03-18T06:46:36.879Z,2.10
2019-03-18T06:49:03.808Z,2.33
2019-03-18T06:51:30.770Z,1.43
2019-03-18T06:53:57.707Z,1.50
2019-03-18T06:56:25.162Z,1.23
2019-03-18T06:58:52.125Z,1.47
2019-03-18T07:01:19.154Z,2.83
2019-03-18T07:03:46.072Z,2.87
2019-03-18T07:06:13.021Z,1.50
2019-03-18T07:08:39.952Z,4.30
2019-03-18T07:11:06.869Z,3.10
2019-03-18T07:13:33.825Z,2.20
2019-03-18T07:16:00.779Z,4.50
2019-03-18T07:18:27.714Z,4.03
2019-03-18T07:20:54.664Z,2.10
2019-03-18T07:23:21.596Z,2.87
2019-03-18T07:25:48.817Z,2.20
2019-03-18T07:28:17.995Z,3.50
2019-03-18T07:30:42.730Z,2.57
2019-03-18T07:33:09.654Z,2.73
2019-03-18T07:35:36.604Z,1.50
2019-03-18T07:38:03.574Z,4.00
2019-03-18T07:40:30.526Z,1.50
2019-03-18T07:42:57.516Z,3.27
2019-03-18T07:45:24.449Z,2.80
2019-03-18T07:47:51.429Z,9.63
2019-03-18T07:50:18.492Z,3.50
2019-03-18T07:52:45.436Z,2.10
2019-03-18T07:55:12.387Z,3.20
2019-03-18T07:57:39.678Z,4.97
2019-03-18T08:00:07.338Z,2.07
2019-03-18T08:02:34.252Z,2.00
2019-03-18T08:05:01.235Z,5.33
2019-03-18T08:07:28.177Z,1.30
2019-03-18T08:09:55.109Z,3.33
2019-03-18T08:12:22.073Z,1.97
2019-03-18T08:14:49.001Z,3.70
2019-03-18T08:17:15.929Z,1.80
2019-03-18T08:19:42.877Z,1.63
2019-03-18T08:22:09.820Z,2.60
2019-03-18T08:24:36.792Z,3.83
2019-03-18T08:27:03.738Z,2.40
2019-03-18T08:29:30.649Z,2.83
2019-03-18T08:31:57.578Z,2.63
2019-03-18T08:34:24.546Z,2.90
2019-03-18T08:36:51.483Z,1.40
2019-03-18T08:39:18.405Z,1.70
2019-03-18T08:41:45.347Z,2.63
2019-03-18T08:44:12.272Z,4.60
2019-03-18T08:46:39.217Z,2.67
2019-03-18T08:49:06.174Z,2.37
2019-03-18T08:51:33.108Z,2.40
2019-03-18T08:54:00.073Z,1.67
2019-03-18T08:56:29.576Z,3.73
2019-03-18T08:58:55.161Z,1.70
2019-03-18T09:01:22.094Z,3.80
2019-03-18T09:03:49.115Z,1.10
2019-03-18T09:06:16.068Z,3.20
2019-03-18T09:08:43.033Z,1.53
2019-03-18T09:11:10.012Z,2.47
2019-03-18T09:13:36.984Z,5.00
2019-03-18T09:16:03.939Z,1.23
2019-03-18T09:18:30.889Z,3.20
2019-03-18T09:20:57.804Z,0.90
2019-03-18T09:23:24.884Z,1.00
2019-03-18T09:25:51.819Z,1.13
2019-03-18T09:28:18.772Z,2.03
2019-03-18T09:30:45.712Z,0.90
2019-03-18T09:33:12.673Z,1.33
2019-03-18T09:35:39.603Z,2.23
2019-03-18T09:38:06.553Z,1.40
2019-03-18T09:40:33.493Z,3.30
2019-03-18T09:43:00.425Z,1.67
2019-03-18T09:45:27.372Z,1.73
2019-03-18T09:47:56.289Z,3.17
2019-03-18T09:50:21.256Z,2.13
2019-03-18T09:52:48.195Z,1.10
2019-03-18T09:55:15.159Z,2.17
2019-03-18T09:57:42.088Z,3.90
2019-03-18T10:00:12.101Z,3.10
2019-03-18T10:02:36.481Z,1.07
2019-03-18T10:05:03.807Z,1.20
2019-03-18T10:07:30.762Z,1.53
2019-03-18T10:09:57.764Z,4.37
2019-03-18T10:12:24.700Z,1.30
2019-03-18T10:14:51.638Z,3.07
2019-03-18T10:17:18.587Z,0.93
2019-03-18T10:19:45.523Z,2.47
2019-03-18T10:22:12.693Z,3.17
2019-03-18T10:24:39.633Z,3.20
2019-03-18T10:27:06.560Z,3.23
2019-03-18T10:29:33.485Z,3.53
2019-03-18T10:32:00.460Z,1.47
2019-03-18T10:34:27.391Z,1.47
2019-03-18T10:36:54.328Z,2.80
2019-03-18T10:39:21.261Z,1.90
2019-03-18T10:41:48.228Z,1.73
2019-03-18T10:44:15.189Z,0.90
2019-03-18T10:46:42.135Z,1.73
2019-03-18T10:49:09.746Z,1.17
2019-03-18T10:51:36.742Z,1.53
2019-03-18T10:54:03.705Z,1.37
2019-03-18T10:56:30.600Z,1.93
2019-03-18T10:58:57.579Z,1.87
2019-03-18T11:01:24.670Z,2.47
2019-03-18T11:03:51.600Z,1.20
2019-03-18T11:06:18.530Z,1.20
2019-03-18T11:08:45.495Z,1.20
2019-03-18T11:11:12.471Z,2.00
2019-03-18T11:13:39.399Z,1.17
2019-03-18T11:16:06.351Z,1.70
2019-03-18T11:18:33.264Z,1.53
2019-03-18T11:21:00.202Z,1.53
2019-03-18T11:23:27.148Z,1.80
2019-03-18T11:25:54.062Z,4.27
2019-03-18T11:28:20.996Z,1.33
2019-03-18T11:30:47.969Z,3.57
2019-03-18T11:33:14.914Z,2.17
2019-03-18T11:35:41.841Z,1.77
2019-03-18T11:38:08.821Z,1.10
2019-03-18T11:40:35.756Z,1.67
2019-03-18T11:43:02.689Z,3.03
2019-03-18T11:45:29.806Z,0.97
2019-03-18T11:47:56.741Z,1.37
2019-03-18T11:50:23.772Z,0.60
2019-03-18T11:52:50.779Z,1.47
2019-03-18T11:55:17.750Z,2.37
2019-03-18T11:57:44.714Z,3.47
2019-03-18T12:00:12.873Z,0.97
2019-03-18T12:02:40.238Z,1.47
2019-03-18T12:05:09.531Z,2.93
2019-03-18T12:07:36.557Z,0.70
2019-03-18T12:10:03.789Z,1.47
2019-03-18T12:12:30.744Z,1.07
2019-03-18T12:14:57.708Z,1.13
2019-03-18T12:17:24.630Z,0.70
2019-03-18T12:19:51.580Z,1.33
2019-03-18T12:22:18.537Z,1.47
2019-03-18T12:24:45.486Z,0.97
2019-03-18T12:27:12.493Z,0.73
2019-03-18T12:29:39.412Z,0.83
2019-03-18T12:32:06.362Z,1.70
2019-03-18T12:34:33.302Z,0.93
2019-03-18T12:37:00.249Z,1.23
2019-03-18T12:39:27.236Z,1.13
2019-03-18T12:41:54.167Z,3.60
2019-03-18T12:44:21.132Z,1.43
2019-03-18T12:46:48.052Z,1.27
2019-03-18T12:49:14.993Z,1.53
2019-03-18T12:51:41.958Z,1.20
2019-03-18T12:54:08.902Z,1.67
2019-03-18T12:56:35.837Z,3.47
2019-03-18T12:59:02.795Z,0.87
2019-03-18T13:01:30.028Z,0.93
2019-03-18T13:03:56.797Z,0.63
2019-03-18T13:06:23.817Z,0.73
2019-03-18T13:08:50.775Z,1.30
2019-03-18T13:11:17.712Z,2.47
2019-03-18T13:13:44.648Z,3.50
2019-03-18T13:16:11.595Z,1.93
2019-03-18T13:18:38.524Z,0.97
2019-03-18T13:21:08.160Z,1.00
2019-03-18T13:23:32.438Z,1.47
2019-03-18T13:25:59.403Z,1.87
2019-03-18T13:28:26.349Z,1.93
2019-03-18T13:30:53.285Z,1.20
2019-03-18T13:33:20.238Z,1.43
2019-03-18T13:35:47.210Z,1.23
2019-03-18T13:38:14.164Z,0.90
2019-03-18T13:40:41.132Z,1.70
2019-03-18T13:43:08.112Z,2.37
2019-03-18T13:45:35.068Z,0.77
2019-03-18T13:48:02.047Z,1.33
2019-03-18T13:50:29.004Z,1.80
2019-03-18T13:52:55.961Z,0.63
2019-03-18T13:55:22.894Z,1.43
2019-03-18T13:57:49.858Z,1.73
2019-03-18T14:00:16.981Z,1.80
2019-03-18T14:02:43.956Z,2.30
2019-03-18T14:05:12.343Z,2.20
2019-03-18T14:07:39.302Z,3.40
2019-03-18T14:10:07.652Z,1.07
2019-03-18T14:12:36.969Z,1.30
2019-03-18T14:15:01.981Z,1.23
2019-03-18T14:17:28.913Z,1.90
2019-03-18T14:19:55.908Z,1.20
2019-03-18T14:22:23.297Z,0.80
2019-03-18T14:24:50.350Z,2.67
2019-03-18T14:27:17.480Z,1.47
2019-03-18T14:29:44.448Z,2.77
2019-03-18T14:32:11.442Z,1.03
2019-03-18T14:34:38.438Z,2.17
2019-03-18T14:37:05.396Z,0.70
2019-03-18T14:39:32.373Z,2.10
2019-03-18T14:41:59.331Z,1.87
2019-03-18T14:44:26.325Z,0.87
2019-03-18T14:46:53.342Z,3.50
2019-03-18T14:49:20.310Z,1.30
2019-03-18T14:51:47.250Z,1.20
2019-03-18T14:54:14.198Z,2.60
2019-03-18T14:56:41.227Z,0.90
2019-03-18T14:59:08.243Z,1.03
2019-03-18T15:01:35.197Z,2.20
2019-03-18T15:04:02.150Z,2.80
2019-03-18T15:06:29.308Z,2.73
2019-03-18T15:08:56.380Z,1.73
2019-03-18T15:11:23.432Z,2.10
2019-03-18T15:13:51.482Z,3.83
2019-03-18T15:16:17.383Z,2.67
2019-03-18T15:18:44.386Z,1.80
2019-03-18T15:21:11.328Z,1.20
2019-03-18T15:23:38.401Z,2.23
2019-03-18T15:26:05.547Z,1.67
2019-03-18T15:28:32.748Z,1.20
2019-03-18T15:30:59.949Z,2.90
2019-03-18T15:33:26.952Z,1.17
2019-03-18T15:35:53.932Z,1.33
2019-03-18T15:38:20.951Z,2.93
2019-03-18T15:40:48.031Z,0.90
2019-03-18T15:43:15.021Z,1.37
2019-03-18T15:45:42.047Z,2.50
2019-03-18T15:48:09.146Z,1.70
2019-03-18T15:50:36.177Z,1.13
2019-03-18T15:53:03.120Z,2.70
2019-03-18T15:55:30.064Z,3.57
2019-03-18T15:57:57.021Z,7.00
2019-03-18T16:00:23.984Z,2.27
2019-03-18T16:02:50.933Z,2.83
2019-03-18T16:05:17.862Z,1.70
2019-03-18T16:07:45.278Z,2.20
2019-03-18T16:10:12.518Z,2.90
2019-03-18T16:12:39.456Z,0.90
2019-03-18T16:15:07.057Z,1.20
2019-03-18T16:17:33.996Z,1.37
2019-03-18T16:20:00.951Z,0.90
2019-03-18T16:22:27.880Z,1.50
2019-03-18T16:24:54.845Z,1.20
2019-03-18T16:27:21.817Z,4.97
2019-03-18T16:29:48.737Z,2.70
2019-03-18T16:32:15.688Z,1.30
2019-03-18T16:34:42.632Z,1.93
2019-03-18T16:37:09.559Z,1.73
2019-03-18T16:39:36.508Z,2.47
2019-03-18T16:42:03.435Z,2.10
2019-03-18T16:44:30.377Z,1.93
2019-03-18T16:46:57.338Z,2.30
2019-03-18T16:49:24.285Z,2.40
2019-03-18T16:51:51.203Z,2.33
2019-03-18T16:54:18.503Z,2.53
2019-03-18T16:56:45.436Z,2.30
2019-03-18T16:59:12.363Z,2.17
2019-03-18T17:01:39.327Z,2.53
2019-03-18T17:04:06.279Z,2.50
2019-03-18T17:06:33.203Z,2.57
2019-03-18T17:09:01.509Z,5.73
2019-03-18T17:11:28.436Z,1.50
2019-03-18T17:13:55.378Z,0.90
2019-03-18T17:16:22.336Z,0.60
2019-03-18T17:18:49.271Z,0.67
2019-03-18T17:21:16.228Z,0.70
2019-03-18T17:23:43.176Z,0.97
2019-03-18T17:26:10.135Z,0.70
2019-03-18T17:28:37.077Z,0.93
2019-03-18T17:31:04.015Z,0.87
2019-03-18T17:33:30.960Z,0.83
2019-03-18T17:35:57.883Z,0.60
2019-03-18T17:38:24.877Z,1.70
2019-03-18T17:40:51.813Z,0.83
2019-03-18T17:43:19.595Z,0.83
2019-03-18T17:45:46.551Z,0.70
2019-03-18T17:48:13.471Z,0.70
2019-03-18T17:50:40.392Z,0.80
2019-03-18T17:53:07.582Z,3.40
2019-03-18T17:55:34.518Z,3.90
2019-03-18T17:58:01.486Z,1.10
2019-03-18T18:00:33.073Z,1.00
2019-03-18T18:03:00.005Z,1.03
2019-03-18T18:05:26.931Z,1.57
2019-03-18T18:07:53.943Z,1.13
2019-03-18T18:10:21.088Z,1.00
2019-03-18T18:12:48.341Z,1.30
2019-03-18T18:15:15.690Z,2.03
2019-03-18T18:17:42.615Z,1.30
2019-03-18T18:20:09.691Z,4.50
2019-03-18T18:22:36.639Z,1.93
2019-03-18T18:25:03.899Z,1.50
2019-03-18T18:27:30.868Z,1.50
2019-03-18T18:29:57.874Z,1.70
2019-03-18T18:32:25.231Z,1.83
2019-03-18T18:34:52.188Z,2.20
2019-03-18T18:37:19.145Z,2.00
2019-03-18T18:39:46.159Z,2.13
2019-03-18T18:42:13.122Z,1.80
2019-03-18T18:44:40.176Z,2.10
2019-03-18T18:47:07.123Z,2.00
2019-03-18T18:49:34.130Z,1.97
2019-03-18T18:52:01.007Z,1.30
2019-03-18T18:54:27.945Z,2.40
2019-03-18T18:56:54.889Z,1.87
2019-03-18T18:59:21.885Z,1.83
2019-03-18T19:01:48.868Z,2.10
2019-03-18T19:04:15.813Z,3.10
2019-03-18T19:06:42.799Z,2.50
2019-03-18T19:09:09.736Z,2.13
2019-03-18T19:11:36.897Z,2.73
2019-03-18T19:14:03.846Z,2.33
2019-03-18T19:16:30.800Z,2.80
2019-03-18T19:18:57.745Z,5.20
2019-03-18T19:21:24.688Z,5.20
2019-03-18T19:23:51.623Z,2.90
2019-03-18T19:26:18.548Z,2.93
2019-03-18T19:28:45.500Z,2.53
2019-03-18T19:31:12.437Z,2.67
2019-03-18T19:33:39.363Z,3.33
2019-03-18T19:36:06.347Z,4.67
2019-03-18T19:38:33.297Z,3.60
2019-03-18T19:41:00.245Z,3.27
2019-03-18T19:43:27.205Z,4.67
2019-03-18T19:45:54.137Z,3.47
2019-03-18T19:48:21.172Z,3.13
2019-03-18T19:50:48.156Z,3.37
2019-03-18T19:53:15.083Z,3.00
2019-03-18T19:55:42.018Z,5.57
2019-03-18T19:58:08.977Z,3.87
2019-03-18T20:00:35.947Z,3.00
2019-03-18T20:03:02.892Z,3.70
2019-03-18T20:05:29.844Z,4.03
2019-03-18T20:07:56.796Z,2.60
2019-03-18T20:10:23.755Z,3.73
2019-03-18T20:12:51.126Z,4.53
2019-03-18T20:15:18.080Z,3.50
2019-03-18T20:17:45.038Z,3.23
2019-03-18T20:20:12.441Z,3.67
2019-03-18T20:22:39.388Z,3.83
2019-03-18T20:25:06.422Z,3.83
2019-03-18T20:27:33.428Z,6.13
2019-03-18T20:30:00.390Z,4.53
2019-03-18T20:32:27.434Z,4.37
2019-03-18T20:34:54.417Z,4.43
2019-03-18T20:37:21.397Z,4.37
2019-03-18T20:39:48.364Z,4.83
2019-03-18T20:42:15.349Z,4.97
2019-03-18T20:44:42.294Z,4.77
2019-03-18T20:47:09.228Z,5.23
2019-03-18T20:49:36.244Z,4.20
2019-03-18T20:52:03.162Z,4.30
2019-03-18T20:54:30.109Z,6.10
2019-03-18T20:56:57.083Z,5.43
2019-03-18T20:59:24.018Z,5.03
2019-03-18T21:01:50.961Z,4.37
2019-03-18T21:04:17.916Z,4.00
2019-03-18T21:06:44.865Z,4.17
2019-03-18T21:09:11.821Z,4.57
2019-03-18T21:11:38.825Z,4.33
2019-03-18T21:14:06.113Z,5.00
2019-03-18T21:16:33.045Z,4.13
2019-03-18T21:19:00.054Z,4.17
2019-03-18T21:21:27.109Z,4.00
2019-03-18T21:23:54.052Z,4.03
2019-03-18T21:26:21.018Z,4.03
2019-03-18T21:28:47.957Z,4.20
2019-03-18T21:31:14.893Z,3.57
2019-03-18T21:33:41.955Z,4.33
2019-03-18T21:36:08.944Z,4.03
2019-03-18T21:38:35.873Z,4.20
2019-03-18T21:41:02.872Z,4.40
2019-03-18T21:43:29.846Z,4.00
2019-03-18T21:45:56.793Z,3.73
2019-03-18T21:48:23.781Z,4.07
2019-03-18T21:50:50.713Z,4.77
2019-03-18T21:53:17.686Z,4.07
2019-03-18T21:55:44.637Z,4.00
2019-03-18T21:58:11.561Z,5.40
2019-03-18T22:00:38.514Z,4.03
2019-03-18T22:03:05.465Z,4.07
2019-03-18T22:05:32.424Z,4.47
2019-03-18T22:07:59.404Z,4.57
2019-03-18T22:10:26.393Z,4.37
2019-03-18T22:12:53.316Z,4.60
2019-03-18T22:15:20.424Z,4.77
2019-03-18T22:17:47.421Z,4.67
2019-03-18T22:20:14.361Z,4.47
2019-03-18T22:22:41.339Z,5.53
2019-03-18T22:25:08.330Z,4.70
2019-03-18T22:27:35.276Z,5.07
2019-03-18T22:30:02.334Z,5.23
2019-03-18T22:32:29.305Z,5.40
2019-03-18T22:34:56.259Z,5.33
2019-03-18T22:37:23.184Z,5.00
2019-03-18T22:39:50.166Z,5.30
2019-03-18T22:42:17.102Z,5.60
2019-03-18T22:44:44.019Z,4.60
2019-03-18T22:47:10.972Z,5.13
2019-03-18T22:49:37.919Z,5.07
2019-03-18T22:52:04.944Z,4.93
2019-03-18T22:54:31.861Z,4.80
2019-03-18T22:56:58.788Z,5.40
2019-03-18T22:59:25.761Z,5.60
2019-03-18T23:01:52.728Z,4.97
2019-03-18T23:04:19.680Z,5.50
2019-03-18T23:06:46.640Z,6.00
2019-03-18T23:09:13.639Z,5.47
2019-03-18T23:11:40.582Z,4.57
2019-03-18T23:14:07.525Z,4.43
2019-03-18T23:16:34.892Z,4.70
2019-03-18T23:19:01.820Z,4.30
2019-03-18T23:21:28.765Z,4.97
2019-03-18T23:23:55.726Z,4.50
2019-03-18T23:26:22.682Z,4.93
2019-03-18T23:28:49.650Z,4.93
2019-03-18T23:31:16.613Z,5.00
2019-03-18T23:33:43.546Z,4.50
2019-03-18T23:36:10.490Z,4.50
2019-03-18T23:38:37.442Z,4.63
2019-03-18T23:41:04.382Z,5.80
2019-03-18T23:43:31.299Z,4.60
2019-03-18T23:45:58.249Z,5.07
2019-03-18T23:48:25.181Z,5.10
2019-03-18T23:50:52.134Z,5.17
2019-03-18T23:53:19.181Z,5.53
2019-03-18T23:55:46.141Z,5.53
2019-03-18T23:58:13.078Z,5.23
